createdAt,value
2022-10-24T00:02:26.205Z,38.22
2022-10-24T00:05:13.912Z,33.60
2022-10-24T00:07:54.409Z,52.83
2022-10-24T00:10:21.776Z,33.15
2022-10-24T00:12:49.275Z,39.97
2022-10-24T00:15:17.153Z,32.90
2022-10-24T00:17:45.090Z,55.55
2022-10-24T00:20:13.111Z,52.47
2022-10-24T00:22:42.358Z,44.22
2022-10-24T00:25:10.092Z,37.72
2022-10-24T00:27:37.869Z,43.60
2022-10-24T00:30:13.071Z,34.85
2022-10-24T00:32:40.437Z,43.55
2022-10-24T00:35:27.989Z,46.67
2022-10-24T00:38:09.304Z,36.58
2022-10-24T00:40:36.732Z,33.97
2022-10-24T00:43:05.003Z,42.45
2022-10-24T00:46:13.622Z,41.35
2022-10-24T00:49:09.787Z,46.50
2022-10-24T00:52:17.601Z,52.13
2022-10-24T00:55:22.412Z,40.70
2022-10-24T00:58:05.678Z,40.53
2022-10-24T01:00:34.457Z,37.97
2022-10-24T01:03:02.734Z,47.85
2022-10-24T01:05:40.376Z,55.75
2022-10-24T01:08:36.619Z,39.05
2022-10-24T01:11:40.281Z,40.92
2022-10-24T01:14:13.569Z,33.05
2022-10-24T01:16:52.827Z,41.83
2022-10-24T01:19:48.076Z,55.35
2022-10-24T01:22:28.247Z,39.20
2022-10-24T01:25:06.230Z,40.47
2022-10-24T01:28:12.477Z,56.13
2022-10-24T01:30:53.601Z,43.58
2022-10-24T01:33:31.187Z,43.92
2022-10-24T01:36:07.674Z,45.67
2022-10-24T01:38:37.512Z,43.85
2022-10-24T01:41:20.184Z,57.13
2022-10-24T01:44:14.637Z,41.28
2022-10-24T01:47:38.812Z,46.60
2022-10-24T01:50:23.080Z,40.38
2022-10-24T01:52:53.806Z,40.28
2022-10-24T01:55:39.883Z,38.50
2022-10-24T01:58:40.726Z,42.90
2022-10-24T02:01:24.615Z,43.10
2022-10-24T02:04:00.212Z,47.03
2022-10-24T02:06:34.991Z,48.22
2022-10-24T02:09:16.752Z,53.00
2022-10-24T02:11:46.861Z,39.22
2022-10-24T02:14:24.316Z,39.78
2022-10-24T02:17:11.660Z,45.50
2022-10-24T02:19:52.965Z,39.03
2022-10-24T02:22:29.380Z,40.60
2022-10-24T02:25:03.439Z,41.22
2022-10-24T02:27:44.023Z,37.15
2022-10-24T02:30:16.337Z,39.10
2022-10-24T02:32:47.590Z,53.38
2022-10-24T02:35:20.449Z,49.53
2022-10-24T02:37:55.314Z,47.33
2022-10-24T02:40:24.058Z,41.55
2022-10-24T02:42:54.662Z,45.70
2022-10-24T02:45:42.606Z,43.25
2022-10-24T02:48:28.995Z,44.38
2022-10-24T02:51:18.730Z,38.42
2022-10-24T02:54:19.695Z,44.22
2022-10-24T02:57:21.623Z,39.38
2022-10-24T03:00:02.701Z,46.05
2022-10-24T03:02:50.626Z,41.60
2022-10-24T03:05:32.707Z,42.53
2022-10-24T03:08:00.093Z,45.25
2022-10-24T03:10:27.594Z,43.65
2022-10-24T03:12:55.521Z,44.50
2022-10-24T03:15:23.173Z,39.63
2022-10-24T03:17:58.903Z,49.33
2022-10-24T03:20:26.672Z,46.58
2022-10-24T03:22:54.376Z,50.53
2022-10-24T03:25:21.839Z,45.30
2022-10-24T03:28:09.630Z,52.63
2022-10-24T03:30:52.070Z,45.30
2022-10-24T03:33:21.028Z,49.97
2022-10-24T03:35:53.620Z,52.63
2022-10-24T03:38:23.424Z,55.10
2022-10-24T03:40:51.148Z,49.92
2022-10-24T03:43:38.963Z,52.33
2022-10-24T03:46:22.951Z,48.13
2022-10-24T03:48:50.895Z,57.53
2022-10-24T03:51:38.677Z,57.80
2022-10-24T03:54:41.773Z,57.40
2022-10-24T03:57:22.692Z,53.60
2022-10-24T03:59:50.416Z,57.03
2022-10-24T04:02:20.686Z,62.35
2022-10-24T04:04:48.671Z,51.03
2022-10-24T04:07:16.309Z,58.78
2022-10-24T04:09:45.302Z,62.65
2022-10-24T04:12:32.786Z,55.03
2022-10-24T04:15:35.028Z,56.20
2022-10-24T04:18:15.864Z,53.97
2022-10-24T04:21:03.776Z,54.45
2022-10-24T04:23:45.208Z,54.40
2022-10-24T04:26:15.933Z,47.47
2022-10-24T04:28:44.762Z,56.17
2022-10-24T04:31:15.071Z,50.25
2022-10-24T04:33:44.861Z,52.03
2022-10-24T04:36:12.869Z,54.35
2022-10-24T04:38:41.889Z,49.00
2022-10-24T04:41:11.956Z,57.97
2022-10-24T04:43:52.739Z,54.67
2022-10-24T04:46:53.689Z,70.47
2022-10-24T04:49:34.867Z,59.28
2022-10-24T04:52:02.798Z,58.10
2022-10-24T04:55:21.746Z,61.15
2022-10-24T04:58:04.076Z,55.88
2022-10-24T05:00:45.165Z,57.22
2022-10-24T05:07:32.301Z,62.17
2022-10-24T05:10:02.271Z,72.77
2022-10-24T05:12:30.569Z,48.58
2022-10-24T05:15:11.261Z,60.92
2022-10-24T05:17:39.275Z,60.35
2022-10-24T05:20:13.278Z,60.38
2022-10-24T05:25:56.681Z,58.17
2022-10-24T05:28:24.954Z,53.03
2022-10-24T05:30:53.378Z,64.00
2022-10-24T05:33:21.129Z,56.40
2022-10-24T05:35:50.045Z,58.63
2022-10-24T05:47:38.502Z,53.67
2022-10-24T05:50:15.934Z,64.97
2022-10-24T05:56:10.877Z,64.10
2022-10-24T05:59:00.091Z,58.63
2022-10-24T06:01:28.125Z,65.45
2022-10-24T06:03:59.412Z,59.78
2022-10-24T06:06:28.060Z,74.63
2022-10-24T06:08:55.872Z,59.38
2022-10-24T06:11:24.288Z,68.13
2022-10-24T06:13:51.967Z,64.20
2022-10-24T06:16:40.994Z,73.28
2022-10-24T06:19:22.319Z,78.00
2022-10-24T06:22:09.776Z,97.03
2022-10-24T06:24:50.804Z,101.43
2022-10-24T06:27:19.144Z,112.57
2022-10-24T06:29:47.043Z,109.60
2022-10-24T06:32:14.534Z,126.95
2022-10-24T06:34:42.144Z,133.90
2022-10-24T06:37:09.667Z,129.13
2022-10-24T06:39:37.549Z,138.57
2022-10-24T06:42:25.319Z,141.02
2022-10-24T06:45:21.633Z,133.77
2022-10-24T06:48:02.574Z,136.38
2022-10-24T06:50:31.394Z,102.40
2022-10-24T06:53:19.019Z,120.72
2022-10-24T06:56:20.079Z,113.55
2022-10-24T06:59:02.794Z,86.97
2022-10-24T07:01:36.102Z,85.13
2022-10-24T07:04:05.664Z,84.32
2022-10-24T07:06:34.776Z,67.68
2022-10-24T07:09:11.494Z,61.17
2022-10-24T07:11:46.663Z,75.43
2022-10-24T07:14:14.696Z,66.95
2022-10-24T07:17:09.187Z,62.70
2022-10-24T07:19:57.600Z,72.70
2022-10-24T07:22:28.350Z,62.75
2022-10-24T07:25:32.056Z,54.83
2022-10-24T07:28:03.462Z,60.28
2022-10-24T07:30:35.837Z,74.88
2022-10-24T07:33:03.994Z,64.72
2022-10-24T07:35:31.482Z,77.75
2022-10-24T07:38:22.299Z,64.47
2022-10-24T07:41:27.045Z,71.97
2022-10-24T07:44:27.982Z,74.00
2022-10-24T07:47:27.279Z,62.38
2022-10-24T07:50:14.940Z,68.38
2022-10-24T07:52:56.272Z,68.55
2022-10-24T07:55:43.873Z,63.90
2022-10-24T07:58:24.859Z,63.42
2022-10-24T08:00:52.660Z,66.60
2022-10-24T08:03:20.897Z,65.10
2022-10-24T08:05:48.846Z,82.30
2022-10-24T08:08:36.949Z,63.78
2022-10-24T08:11:22.171Z,58.40
2022-10-24T08:13:50.401Z,63.35
2022-10-24T08:16:21.139Z,61.92
2022-10-24T08:18:54.041Z,62.28
2022-10-24T08:21:42.571Z,65.82
2022-10-24T08:24:19.599Z,71.47
2022-10-24T08:26:50.041Z,59.72
2022-10-24T08:29:22.814Z,65.45
2022-10-24T08:31:55.088Z,52.22
2022-10-24T08:34:23.467Z,42.88
2022-10-24T08:36:51.407Z,51.67
2022-10-24T08:39:19.006Z,44.72
2022-10-24T08:42:08.911Z,51.58
2022-10-24T08:45:10.178Z,54.22
2022-10-24T08:48:03.879Z,51.42
2022-10-24T08:50:35.803Z,52.08
2022-10-24T08:53:29.154Z,50.92
2022-10-24T09:03:12.146Z,57.85
2022-10-24T09:13:14.731Z,42.25
2022-10-24T09:15:44.217Z,57.70
2022-10-24T09:18:53.316Z,34.55
2022-10-24T09:21:20.390Z,57.30
2022-10-24T09:23:48.781Z,34.50
2022-10-24T09:26:26.452Z,42.45
2022-10-24T09:28:55.171Z,52.05
2022-10-24T09:31:24.867Z,57.67
2022-10-24T09:33:53.502Z,68.25
2022-10-24T09:36:24.980Z,49.88
2022-10-24T09:38:52.151Z,41.55
2022-10-24T09:41:43.833Z,43.58
2022-10-24T09:44:55.814Z,36.90
2022-10-24T09:47:56.803Z,49.80
2022-10-24T09:50:42.232Z,35.15
2022-10-24T09:53:36.802Z,49.92
2022-10-24T09:56:54.302Z,49.83
2022-10-24T09:59:57.921Z,42.92
2022-10-24T10:02:34.777Z,43.88
2022-10-24T10:05:33.861Z,49.88
2022-10-24T10:08:22.121Z,55.35
2022-10-24T10:11:29.827Z,46.30
2022-10-24T10:14:37.813Z,43.55
2022-10-24T10:17:25.520Z,42.60
2022-10-24T10:22:28.624Z,39.15
2022-10-24T10:24:56.634Z,50.13
2022-10-24T10:27:41.943Z,49.67
2022-10-24T10:30:22.636Z,48.40
2022-10-24T10:33:12.474Z,42.60
2022-10-24T10:36:02.969Z,42.75
2022-10-24T10:39:01.957Z,44.47
2022-10-24T10:42:00.828Z,58.42
2022-10-24T10:44:44.559Z,36.28
2022-10-24T10:47:23.793Z,47.65
2022-10-24T10:49:58.700Z,38.28
2022-10-24T10:52:42.263Z,48.90
2022-10-24T10:55:43.854Z,50.38
2022-10-24T11:01:27.600Z,46.88
2022-10-24T11:04:13.026Z,41.65
2022-10-24T11:06:47.001Z,43.38
2022-10-24T11:12:04.836Z,51.05
2022-10-24T11:15:37.844Z,48.50
2022-10-24T11:18:27.856Z,49.75
2022-10-24T11:21:03.962Z,47.25
2022-10-24T11:23:54.854Z,45.92
2022-10-24T11:26:31.084Z,54.38
2022-10-24T11:29:17.529Z,51.80
2022-10-24T11:32:13.844Z,38.70
2022-10-24T11:35:36.885Z,49.50
2022-10-24T11:38:24.517Z,39.80
2022-10-24T11:41:10.871Z,31.92
2022-10-24T11:44:07.522Z,39.00
2022-10-24T11:46:44.576Z,35.63
2022-10-24T11:49:26.099Z,36.30
2022-10-24T11:52:04.938Z,36.30
2022-10-24T11:55:03.913Z,45.00
2022-10-24T11:58:12.861Z,32.38
2022-10-24T12:01:21.999Z,40.80
2022-10-24T12:04:21.705Z,33.00
2022-10-24T12:07:14.909Z,44.63
2022-10-24T12:09:55.519Z,38.72
2022-10-24T12:12:47.871Z,34.83
2022-10-24T12:15:41.521Z,37.22
2022-10-24T12:18:48.891Z,39.80
2022-10-24T12:21:39.803Z,35.58
2022-10-24T12:24:21.068Z,32.05
2022-10-24T12:26:57.149Z,32.10
2022-10-24T12:29:26.563Z,25.33
2022-10-24T12:32:37.904Z,38.20
2022-10-24T12:35:31.615Z,25.77
2022-10-24T12:37:59.792Z,28.10
2022-10-24T12:40:45.378Z,31.08
2022-10-24T12:43:44.907Z,24.60
2022-10-24T12:46:25.613Z,31.23
2022-10-24T12:49:12.907Z,27.85
2022-10-24T12:52:46.126Z,33.45
2022-10-24T12:55:49.902Z,40.50
2022-10-24T12:58:55.921Z,30.27
2022-10-24T13:01:38.254Z,31.40
2022-10-24T13:04:21.694Z,33.13
2022-10-24T13:07:13.296Z,21.70
2022-10-24T13:10:12.093Z,21.63
2022-10-24T13:12:58.998Z,40.38
2022-10-24T13:16:15.935Z,19.90
2022-10-24T13:19:18.139Z,22.98
2022-10-24T13:21:50.515Z,21.90
2022-10-24T13:24:17.379Z,21.30
2022-10-24T13:26:46.373Z,34.95
2022-10-24T13:29:39.619Z,25.08
2022-10-24T13:32:06.529Z,26.48
2022-10-24T13:34:54.628Z,26.77
2022-10-24T13:37:44.072Z,24.23
2022-10-24T13:40:30.495Z,11.57
2022-10-24T13:42:59.011Z,23.27
2022-10-24T13:45:44.888Z,23.77
2022-10-24T13:48:34.957Z,20.45
2022-10-24T13:51:45.951Z,29.02
2022-10-24T13:54:53.220Z,44.53
2022-10-24T13:57:52.660Z,40.78
2022-10-24T14:00:45.992Z,30.20
2022-10-24T14:03:29.739Z,32.10
2022-10-24T14:06:06.612Z,24.75
2022-10-24T14:08:38.926Z,15.52
2022-10-24T14:11:33.970Z,20.90
2022-10-24T14:14:42.967Z,29.50
2022-10-24T14:17:28.762Z,22.35
2022-10-24T14:20:02.246Z,21.30
2022-10-24T14:22:40.529Z,34.28
2022-10-24T14:25:36.239Z,26.58
2022-10-24T14:28:20.358Z,33.65
2022-10-24T14:30:59.466Z,39.08
2022-10-24T14:33:42.325Z,38.08
2022-10-24T14:36:09.624Z,28.90
2022-10-24T14:38:36.959Z,27.83
2022-10-24T14:41:09.579Z,29.52
2022-10-24T14:43:42.637Z,30.63
2022-10-24T14:46:12.885Z,14.40
2022-10-24T14:48:43.242Z,22.83
2022-10-24T14:51:18.824Z,27.85
2022-10-24T14:54:06.022Z,16.95
2022-10-24T14:57:10.351Z,16.70
2022-10-24T15:00:07.548Z,24.95
2022-10-24T15:02:43.122Z,31.80
2022-10-24T15:05:19.716Z,15.10
2022-10-24T15:08:23.189Z,38.75
2022-10-24T15:11:35.022Z,29.98
2022-10-24T15:15:05.057Z,20.05
2022-10-24T15:18:10.035Z,33.80
2022-10-24T15:21:03.884Z,30.55
2022-10-24T15:23:33.522Z,19.48
2022-10-24T15:26:07.777Z,37.72
2022-10-24T15:28:55.996Z,39.53
2022-10-24T15:31:27.735Z,24.55
2022-10-24T15:33:55.942Z,34.70
2022-10-24T15:36:31.610Z,25.85
2022-10-24T15:39:20.661Z,30.33
2022-10-24T15:42:08.062Z,31.67
2022-10-24T15:44:49.229Z,35.97
2022-10-24T15:47:16.124Z,41.88
2022-10-24T15:50:04.057Z,37.00
2022-10-24T15:52:49.704Z,35.28
2022-10-24T15:55:40.052Z,26.48
2022-10-24T15:58:41.100Z,33.03
2022-10-24T16:01:48.174Z,31.95
2022-10-24T16:04:29.918Z,32.88
2022-10-24T16:06:56.954Z,42.40
2022-10-24T16:09:27.602Z,49.03
2022-10-24T16:12:15.059Z,36.42
2022-10-24T16:15:16.099Z,41.38
2022-10-24T16:17:56.629Z,37.90
2022-10-24T16:20:44.107Z,32.78
2022-10-24T16:23:26.258Z,49.08
2022-10-24T16:25:53.415Z,70.07
2022-10-24T16:28:23.587Z,48.20
2022-10-24T16:30:51.024Z,47.47
2022-10-24T16:33:20.218Z,32.28
2022-10-24T16:35:50.136Z,38.00
2022-10-24T16:38:17.322Z,52.03
2022-10-24T16:41:04.102Z,56.63
2022-10-24T16:43:55.899Z,40.45
2022-10-24T16:46:24.235Z,40.85
2022-10-24T16:48:51.572Z,47.05
2022-10-24T16:51:44.003Z,45.05
2022-10-24T16:54:45.151Z,46.08
2022-10-24T16:57:46.287Z,70.35
2022-10-24T17:00:27.151Z,42.80
2022-10-24T17:02:56.146Z,45.63
2022-10-24T17:05:25.133Z,33.65
2022-10-24T17:08:12.131Z,45.03
2022-10-24T17:11:39.475Z,54.47
2022-10-24T17:14:34.089Z,39.22
2022-10-24T17:17:35.145Z,37.50
2022-10-24T17:20:17.355Z,37.60
2022-10-24T17:22:45.647Z,37.65
2022-10-24T17:25:38.100Z,36.05
2022-10-24T17:28:32.998Z,40.80
2022-10-24T17:31:00.669Z,31.65
2022-10-24T17:33:27.888Z,42.97
2022-10-24T17:35:57.589Z,46.30
2022-10-24T17:38:40.462Z,47.17
2022-10-24T17:41:26.644Z,62.85
2022-10-24T17:43:55.419Z,47.65
2022-10-24T17:46:45.171Z,47.67
2022-10-24T17:49:25.797Z,45.78
2022-10-24T17:51:52.905Z,59.42
2022-10-24T17:54:44.794Z,49.00
2022-10-24T17:57:25.686Z,48.10
2022-10-24T18:00:15.126Z,65.97
2022-10-24T18:02:55.734Z,52.90
2022-10-24T18:05:22.837Z,52.58
2022-10-24T18:07:51.045Z,53.40
2022-10-24T18:10:18.022Z,59.75
2022-10-24T18:13:05.172Z,68.25
2022-10-24T18:16:06.177Z,48.22
2022-10-24T18:18:47.686Z,54.95
2022-10-24T18:21:37.186Z,60.80
2022-10-24T18:24:38.154Z,47.55
2022-10-24T18:27:18.690Z,47.88
2022-10-24T18:30:06.258Z,53.92
2022-10-24T18:33:07.185Z,48.17
2022-10-24T18:36:04.525Z,44.60
2022-10-24T18:38:34.654Z,62.67
2022-10-24T18:41:02.846Z,61.80
2022-10-24T18:43:30.268Z,46.80
2022-10-24T18:45:57.547Z,43.55
2022-10-24T18:48:24.894Z,51.95
2022-10-24T18:50:52.159Z,52.30
2022-10-24T18:53:23.755Z,44.25
2022-10-24T18:56:11.205Z,41.13
2022-10-24T18:59:14.149Z,37.22
2022-10-24T19:02:27.232Z,37.55
2022-10-24T19:05:31.305Z,39.88
2022-10-24T19:08:22.169Z,34.40
2022-10-24T19:14:15.194Z,39.83
2022-10-24T19:16:58.262Z,33.53
2022-10-24T19:19:29.222Z,37.92
2022-10-24T19:21:56.373Z,34.80
2022-10-24T19:24:23.404Z,45.92
2022-10-24T19:27:10.235Z,46.42
2022-10-24T19:30:11.214Z,54.92
2022-10-24T19:32:51.838Z,45.50
2022-10-24T19:35:19.915Z,36.92
2022-10-24T19:37:47.081Z,48.92
2022-10-24T19:40:14.651Z,39.85
2022-10-24T19:42:41.679Z,39.90
2022-10-24T19:45:29.193Z,43.03
2022-10-24T19:48:11.864Z,53.38
2022-10-24T19:50:38.753Z,39.10
2022-10-24T19:53:05.748Z,38.13
2022-10-24T19:55:53.243Z,43.47
2022-10-24T19:58:55.215Z,57.40
2022-10-24T20:01:36.554Z,38.25
2022-10-24T20:04:03.725Z,40.08
2022-10-24T20:06:30.916Z,46.33
2022-10-24T20:08:57.896Z,37.70
2022-10-24T20:11:24.824Z,58.42
2022-10-24T20:13:51.907Z,50.00
2022-10-24T20:16:33.561Z,39.85
2022-10-24T20:19:34.232Z,45.78
2022-10-24T20:22:14.931Z,58.60
2022-10-24T20:24:41.939Z,52.30
2022-10-24T20:27:29.235Z,47.47
2022-10-24T20:30:10.534Z,57.15
2022-10-24T20:32:37.433Z,43.08
2022-10-24T20:35:04.646Z,47.60
2022-10-24T20:37:31.565Z,52.17
2022-10-24T20:39:58.463Z,55.83
2022-10-24T20:42:25.407Z,44.47
2022-10-24T20:44:52.341Z,49.67
2022-10-24T20:47:41.227Z,59.20
2022-10-24T20:50:42.208Z,39.47
2022-10-24T20:53:22.769Z,60.97
2022-10-24T20:56:10.289Z,51.67
2022-10-24T20:58:52.074Z,59.08
2022-10-24T21:01:24.481Z,45.28
2022-10-24T21:03:53.143Z,44.63
2022-10-24T21:06:22.926Z,39.90
2022-10-24T21:08:51.782Z,62.00
2022-10-24T21:11:41.218Z,70.07
2022-10-24T21:14:21.855Z,44.65
2022-10-24T21:17:09.229Z,55.55
2022-10-24T21:20:10.297Z,45.85
2022-10-24T21:22:50.906Z,53.90
2022-10-24T21:25:17.856Z,51.75
2022-10-24T21:27:45.119Z,43.47
2022-10-24T21:30:33.331Z,38.13
2022-10-24T21:33:27.234Z,44.38
2022-10-24T21:36:15.439Z,43.78
2022-10-24T21:38:45.900Z,54.60
2022-10-24T21:41:12.794Z,44.33
2022-10-24T21:43:41.615Z,47.22
2022-10-24T21:46:11.407Z,61.55
2022-10-24T21:48:39.612Z,66.63
2022-10-24T21:51:08.314Z,52.00
2022-10-24T21:53:59.259Z,44.97
2022-10-24T21:57:00.312Z,42.63
2022-10-24T22:00:01.307Z,44.83
2022-10-24T22:03:04.080Z,53.00
2022-10-24T22:06:09.276Z,43.85
2022-10-24T22:08:51.150Z,45.00
2022-10-24T22:11:24.337Z,50.13
2022-10-24T22:13:52.251Z,39.05
2022-10-24T22:16:21.593Z,54.53
2022-10-24T22:19:08.289Z,52.38
2022-10-24T22:22:02.436Z,44.17
2022-10-24T22:24:44.847Z,47.25
2022-10-24T22:27:32.279Z,55.75
2022-10-24T22:30:13.636Z,45.33
2022-10-24T22:32:40.896Z,42.30
2022-10-24T22:35:10.166Z,44.55
2022-10-24T22:37:37.374Z,50.95
2022-10-24T22:40:19.362Z,49.70
2022-10-24T22:42:46.696Z,49.55
2022-10-24T22:45:14.489Z,44.30
2022-10-24T22:47:45.815Z,40.45
2022-10-24T22:50:51.762Z,45.42
2022-10-24T22:53:42.307Z,62.08
2022-10-24T22:56:43.321Z,54.20
2022-10-24T22:59:24.253Z,56.72
2022-10-24T23:02:09.462Z,63.38
2022-10-24T23:05:10.313Z,46.13
2022-10-24T23:08:17.280Z,51.73
2022-10-24T23:10:58.139Z,39.35
2022-10-24T23:13:25.559Z,52.63
2022-10-24T23:15:54.943Z,62.10
2022-10-24T23:18:22.148Z,44.22
2022-10-24T23:21:13.446Z,48.58
2022-10-24T23:24:00.311Z,59.72
2022-10-24T23:27:13.439Z,58.67
2022-10-24T23:29:43.178Z,50.83
2022-10-24T23:32:20.307Z,78.40
2022-10-24T23:34:48.139Z,75.65
2022-10-24T23:37:32.047Z,50.75
2022-10-24T23:40:19.389Z,59.65
2022-10-24T23:42:48.217Z,61.78
2022-10-24T23:45:17.710Z,49.85
2022-10-24T23:48:03.911Z,53.45
2022-10-24T23:50:58.074Z,57.45
2022-10-24T23:53:59.314Z,65.55
2022-10-24T23:57:00.389Z,68.20
2022-10-24T23:59:41.082Z,51.72
